createdAt,value
2023-02-05T00:01:41.780Z,-0.88
2023-02-05T00:04:09.265Z,-0.98
2023-02-05T00:06:36.787Z,-1.07
2023-02-05T00:09:04.257Z,-0.85
2023-02-05T00:11:33.071Z,-0.75
2023-02-05T00:14:00.566Z,-0.68
2023-02-05T00:16:28.168Z,-0.75
2023-02-05T00:18:55.783Z,-0.80
2023-02-05T00:21:24.574Z,-0.75
2023-02-05T00:23:52.063Z,-0.68
2023-02-05T00:26:19.591Z,-0.76
2023-02-05T00:28:48.447Z,-0.96
2023-02-05T00:31:19.684Z,-1.12
2023-02-05T00:33:48.347Z,-1.11
2023-02-05T00:36:17.041Z,-0.92
2023-02-05T00:38:46.039Z,-0.92
2023-02-05T00:41:14.779Z,-0.90
2023-02-05T00:43:43.037Z,-0.84
2023-02-05T00:46:13.448Z,-0.88
2023-02-05T00:48:42.707Z,-0.99
2023-02-05T00:51:10.623Z,-0.95
2023-02-05T00:53:38.889Z,-1.01
2023-02-05T00:56:06.899Z,-1.00
2023-02-05T00:58:34.585Z,-0.97
2023-02-05T01:01:02.083Z,-1.09
2023-02-05T01:03:31.047Z,-1.15
2023-02-05T01:05:59.427Z,-1.18
2023-02-05T01:08:26.876Z,-1.14
2023-02-05T01:10:54.345Z,-1.10
2023-02-05T01:13:21.824Z,-1.21
2023-02-05T01:15:49.304Z,-1.28
2023-02-05T01:18:17.038Z,-1.16
2023-02-05T01:20:45.906Z,-1.17
2023-02-05T01:23:13.389Z,-1.17
2023-02-05T01:25:40.979Z,-1.26
2023-02-05T01:28:08.525Z,-1.31
2023-02-05T01:30:36.443Z,-1.37
2023-02-05T01:33:04.421Z,-1.42
2023-02-05T01:35:32.532Z,-1.37
2023-02-05T01:38:01.661Z,-1.32
2023-02-05T01:40:29.125Z,-1.29
2023-02-05T01:42:56.608Z,-1.29
2023-02-05T01:45:56.210Z,-1.23
2023-02-05T01:48:28.023Z,-1.22
2023-02-05T01:51:00.390Z,-1.24
2023-02-05T01:53:32.595Z,-1.43
2023-02-05T01:56:02.453Z,-1.37
2023-02-05T01:58:34.732Z,-1.24
2023-02-05T02:01:02.201Z,-1.29
2023-02-05T02:03:32.132Z,-1.32
2023-02-05T02:06:00.259Z,-1.34
2023-02-05T02:08:29.601Z,-1.45
2023-02-05T02:10:59.128Z,-1.33
2023-02-05T02:13:28.917Z,-1.31
2023-02-05T02:15:57.842Z,-1.43
2023-02-05T02:18:28.975Z,-1.51
2023-02-05T02:21:28.348Z,-1.46
2023-02-05T02:24:50.034Z,-1.72
2023-02-05T02:27:41.581Z,-1.54
2023-02-05T02:30:15.637Z,-1.52
2023-02-05T02:32:51.661Z,-1.47
2023-02-05T02:35:26.596Z,-1.41
2023-02-05T02:38:00.924Z,-1.42
2023-02-05T02:40:36.747Z,-1.49
2023-02-05T02:43:10.193Z,-1.54
2023-02-05T02:45:49.968Z,-1.96
2023-02-05T02:48:22.747Z,-1.90
2023-02-05T02:50:53.786Z,-1.67
2023-02-05T02:53:25.054Z,-1.50
2023-02-05T02:55:54.796Z,-1.68
2023-02-05T02:58:26.439Z,-1.52
2023-02-05T03:00:55.078Z,-1.63
2023-02-05T03:03:27.395Z,-1.77
2023-02-05T03:05:58.254Z,-1.94
2023-02-05T03:08:31.257Z,-1.73
2023-02-05T03:11:04.238Z,-1.56
2023-02-05T03:13:33.234Z,-1.54
2023-02-05T03:16:01.432Z,-1.64
2023-02-05T03:18:30.443Z,-1.68
2023-02-05T03:21:01.254Z,-1.82
2023-02-05T03:23:29.646Z,-1.95
2023-02-05T03:25:57.238Z,-1.93
2023-02-05T03:28:24.962Z,-1.92
2023-02-05T03:31:05.166Z,-1.92
2023-02-05T03:33:47.994Z,-1.99
2023-02-05T03:36:21.645Z,-2.01
2023-02-05T03:39:03.545Z,-2.02
2023-02-05T03:41:54.951Z,-2.10
2023-02-05T03:44:49.532Z,-2.08
2023-02-05T03:47:33.635Z,-1.94
2023-02-05T03:50:11.914Z,-1.83
2023-02-05T03:52:44.928Z,-1.79
2023-02-05T03:55:18.283Z,-1.86
2023-02-05T03:57:53.644Z,-2.01
2023-02-05T04:00:21.557Z,-2.33
2023-02-05T04:02:50.356Z,-1.98
2023-02-05T04:05:20.943Z,-1.75
2023-02-05T04:07:48.473Z,-1.63
2023-02-05T04:10:16.524Z,-1.62
2023-02-05T04:12:43.979Z,-1.55
2023-02-05T04:15:11.796Z,-1.48
2023-02-05T04:17:39.310Z,-1.48
2023-02-05T04:20:09.520Z,-1.44
2023-02-05T04:22:37.013Z,-1.71
2023-02-05T04:25:04.794Z,-1.55
2023-02-05T04:27:32.281Z,-1.52
2023-02-05T04:29:59.763Z,-1.60
2023-02-05T04:32:27.317Z,-1.55
2023-02-05T04:34:54.772Z,-1.57
2023-02-05T04:37:24.946Z,-1.58
2023-02-05T04:39:52.489Z,-1.55
2023-02-05T04:42:20.113Z,-1.49
2023-02-05T04:44:47.588Z,-1.40
2023-02-05T04:47:15.076Z,-1.32
2023-02-05T04:49:42.552Z,-1.24
2023-02-05T04:52:10.028Z,-1.23
2023-02-05T04:54:39.307Z,-1.22
2023-02-05T04:57:06.763Z,-1.15
2023-02-05T04:59:34.256Z,-1.06
2023-02-05T05:02:01.775Z,-0.96
2023-02-05T05:04:29.250Z,-1.08
2023-02-05T05:06:56.711Z,-0.95
2023-02-05T05:09:25.276Z,-0.77
2023-02-05T05:11:54.770Z,-0.68
2023-02-05T05:14:22.202Z,-0.77
2023-02-05T05:16:50.239Z,-0.94
2023-02-05T05:19:17.800Z,-0.75
2023-02-05T05:21:45.306Z,-0.69
2023-02-05T05:24:12.811Z,-0.60
2023-02-05T05:26:43.742Z,-0.59
2023-02-05T05:29:13.654Z,-0.69
2023-02-05T05:31:41.509Z,-0.86
2023-02-05T05:34:09.017Z,-0.96
2023-02-05T05:36:36.505Z,-1.00
2023-02-05T05:39:18.090Z,-1.02
2023-02-05T05:42:03.371Z,-1.14
2023-02-05T05:44:32.182Z,-1.20
2023-02-05T05:46:59.682Z,-1.27
2023-02-05T05:49:27.223Z,-1.25
2023-02-05T05:51:54.829Z,-1.30
2023-02-05T05:54:22.306Z,-1.30
2023-02-05T05:56:50.212Z,-1.31
2023-02-05T05:59:17.828Z,-1.33
2023-02-05T06:01:46.686Z,-1.38
2023-02-05T06:04:14.165Z,-1.50
2023-02-05T06:06:42.438Z,-1.54
2023-02-05T06:09:09.987Z,-1.53
2023-02-05T06:11:37.469Z,-1.51
2023-02-05T06:14:05.306Z,-1.50
2023-02-05T06:16:32.812Z,-1.49
2023-02-05T06:19:01.698Z,-1.59
2023-02-05T06:21:29.157Z,-1.69
2023-02-05T06:23:56.626Z,-1.70
2023-02-05T06:26:24.145Z,-1.68
2023-02-05T06:28:51.642Z,-1.72
2023-02-05T06:31:19.209Z,-1.77
2023-02-05T06:33:46.726Z,-1.84
2023-02-05T06:36:15.518Z,-1.79
2023-02-05T06:38:42.977Z,-1.79
2023-02-05T06:41:10.434Z,-1.73
2023-02-05T06:43:37.912Z,-1.80
2023-02-05T06:46:05.702Z,-1.81
2023-02-05T06:48:33.190Z,-1.69
2023-02-05T06:51:00.644Z,-1.63
2023-02-05T06:53:29.479Z,-1.57
2023-02-05T06:55:59.228Z,-1.52
2023-02-05T06:58:26.762Z,-1.46
2023-02-05T07:00:54.219Z,-1.56
2023-02-05T07:03:21.714Z,-1.38
2023-02-05T07:05:49.193Z,-1.23
2023-02-05T07:08:17.032Z,-1.18
2023-02-05T07:10:45.830Z,-1.04
2023-02-05T07:13:13.364Z,-1.05
2023-02-05T07:15:40.831Z,-0.89
2023-02-05T07:18:08.288Z,-0.72
2023-02-05T07:20:35.846Z,-0.70
2023-02-05T07:23:03.301Z,-0.57
2023-02-05T07:25:36.268Z,-0.55
2023-02-05T07:28:05.930Z,-0.86
2023-02-05T07:30:33.698Z,-0.69
2023-02-05T07:33:03.398Z,-0.43
2023-02-05T07:35:31.090Z,-0.10
2023-02-05T07:37:58.595Z,0.08
2023-02-05T07:40:26.125Z,0.26
2023-02-05T07:42:53.582Z,0.42
2023-02-05T07:45:22.371Z,0.55
2023-02-05T07:47:50.772Z,0.59
2023-02-05T07:50:18.712Z,0.79
2023-02-05T07:52:46.184Z,1.20
2023-02-05T07:55:13.616Z,1.59
2023-02-05T07:57:41.602Z,1.92
2023-02-05T08:00:10.637Z,2.25
2023-02-05T08:02:39.646Z,2.61
2023-02-05T08:05:08.186Z,2.83
2023-02-05T08:07:37.285Z,2.95
2023-02-05T08:10:05.696Z,2.96
2023-02-05T08:12:33.208Z,2.99
2023-02-05T08:15:00.669Z,3.30
2023-02-05T08:17:28.167Z,3.98
2023-02-05T08:19:56.947Z,5.06
2023-02-05T08:22:24.454Z,5.87
2023-02-05T08:24:51.976Z,6.78
2023-02-05T08:27:19.473Z,7.38
2023-02-05T08:29:48.208Z,7.92
2023-02-05T08:32:15.742Z,8.41
2023-02-05T08:34:43.217Z,8.91
2023-02-05T08:37:12.285Z,9.36
2023-02-05T08:39:39.762Z,9.52
2023-02-05T08:42:07.276Z,9.52
2023-02-05T08:44:34.738Z,9.62
2023-02-05T08:47:02.190Z,10.42
2023-02-05T08:49:29.671Z,11.27
2023-02-05T08:51:58.110Z,11.58
2023-02-05T08:54:27.038Z,11.59
2023-02-05T08:56:54.513Z,11.61
2023-02-05T08:59:22.391Z,11.24
2023-02-05T09:01:50.120Z,10.48
2023-02-05T09:04:19.784Z,9.94
2023-02-05T09:06:48.020Z,9.43
2023-02-05T09:09:15.900Z,9.21
2023-02-05T09:11:46.636Z,9.39
2023-02-05T09:14:14.790Z,9.38
2023-02-05T09:16:42.964Z,8.82
2023-02-05T09:19:10.669Z,8.24
2023-02-05T09:21:38.104Z,8.11
2023-02-05T09:24:05.971Z,8.39
2023-02-05T09:26:33.679Z,8.36
2023-02-05T09:29:03.694Z,7.77
2023-02-05T09:31:31.377Z,6.68
2023-02-05T09:33:58.963Z,5.80
2023-02-05T09:36:26.655Z,5.64
2023-02-05T09:39:11.921Z,5.82
2023-02-05T09:41:48.948Z,6.02
2023-02-05T09:44:26.544Z,5.93
2023-02-05T09:47:02.527Z,6.12
2023-02-05T09:49:35.714Z,5.80
2023-02-05T09:52:05.986Z,6.44
2023-02-05T09:54:37.529Z,6.56
2023-02-05T09:57:09.014Z,6.82
2023-02-05T09:59:38.505Z,7.12
2023-02-05T10:02:25.924Z,7.09
2023-02-05T10:04:54.781Z,7.34
2023-02-05T10:07:38.243Z,7.63
2023-02-05T10:10:22.407Z,7.90
2023-02-05T10:13:16.886Z,8.06
2023-02-05T10:16:02.784Z,8.25
2023-02-05T10:18:44.417Z,7.77
2023-02-05T10:21:28.601Z,7.34
2023-02-05T10:24:15.481Z,7.14
2023-02-05T10:26:49.390Z,6.96
2023-02-05T10:29:28.366Z,6.63
2023-02-05T10:32:08.754Z,6.62
2023-02-05T10:34:49.906Z,6.35
2023-02-05T10:37:19.801Z,6.35
2023-02-05T10:39:49.048Z,6.07
2023-02-05T10:42:27.332Z,6.11
2023-02-05T10:45:04.454Z,6.07
2023-02-05T10:47:49.391Z,5.85
2023-02-05T10:50:23.995Z,5.79
2023-02-05T10:52:51.938Z,6.11
2023-02-05T10:55:19.714Z,6.21
2023-02-05T10:57:47.273Z,6.20
2023-02-05T11:00:17.804Z,6.08
2023-02-05T11:02:50.415Z,6.00
2023-02-05T11:05:24.045Z,6.24
2023-02-05T11:07:55.240Z,6.21
2023-02-05T11:10:24.772Z,6.24
2023-02-05T11:12:55.819Z,7.22
2023-02-05T11:15:26.105Z,7.66
2023-02-05T11:18:00.042Z,7.28
2023-02-05T11:20:30.691Z,7.09
2023-02-05T11:23:10.529Z,7.21
2023-02-05T11:25:38.047Z,7.17
2023-02-05T11:28:06.065Z,7.02
2023-02-05T11:30:50.748Z,7.29
2023-02-05T11:33:32.295Z,7.24
2023-02-05T11:36:03.076Z,7.09
2023-02-05T11:38:39.965Z,7.34
2023-02-05T11:41:09.162Z,7.74
2023-02-05T11:43:39.250Z,8.03
2023-02-05T11:46:10.080Z,8.03
2023-02-05T11:48:44.246Z,7.87
2023-02-05T11:51:15.200Z,7.51
2023-02-05T11:53:51.545Z,7.81
2023-02-05T11:56:24.955Z,7.73
2023-02-05T11:59:00.903Z,7.96
2023-02-05T12:01:32.355Z,7.68
2023-02-05T12:04:02.927Z,7.70
2023-02-05T12:06:36.977Z,7.81
2023-02-05T12:09:05.000Z,8.10
2023-02-05T12:12:03.948Z,7.82
2023-02-05T12:14:41.213Z,7.72
2023-02-05T12:17:26.043Z,7.53
2023-02-05T12:20:05.243Z,7.78
2023-02-05T12:22:56.487Z,7.66
2023-02-05T12:25:29.808Z,7.80
2023-02-05T12:28:18.541Z,8.03
2023-02-05T12:30:57.972Z,7.77
2023-02-05T12:33:43.951Z,7.01
2023-02-05T12:36:30.105Z,7.25
2023-02-05T12:39:13.482Z,7.06
2023-02-05T12:41:50.053Z,7.28
2023-02-05T12:44:34.609Z,6.94
2023-02-05T12:47:14.724Z,6.80
2023-02-05T12:50:07.821Z,6.62
2023-02-05T12:52:54.443Z,6.10
2023-02-05T12:55:33.128Z,6.32
2023-02-05T12:58:04.070Z,6.52
2023-02-05T13:00:37.286Z,6.38
2023-02-05T13:03:09.764Z,6.80
2023-02-05T13:05:41.852Z,6.79
2023-02-05T13:08:20.080Z,7.05
2023-02-05T13:10:54.468Z,7.17
2023-02-05T13:13:31.298Z,7.07
2023-02-05T13:16:03.937Z,6.59
2023-02-05T13:18:36.511Z,6.33
2023-02-05T13:21:25.734Z,6.16
2023-02-05T13:24:36.146Z,5.89
2023-02-05T13:27:23.757Z,5.46
2023-02-05T13:29:53.846Z,5.55
2023-02-05T13:32:25.169Z,5.63
2023-02-05T13:34:54.688Z,5.61
2023-02-05T13:37:42.638Z,5.66
2023-02-05T13:40:43.701Z,5.57
2023-02-05T13:43:39.369Z,5.65
2023-02-05T13:46:37.306Z,5.97
2023-02-05T13:49:52.092Z,5.76
2023-02-05T13:52:58.180Z,5.47
2023-02-05T13:56:04.701Z,5.43
2023-02-05T13:58:35.003Z,5.58
2023-02-05T14:01:06.502Z,5.84
2023-02-05T14:03:38.138Z,5.74
2023-02-05T14:06:23.843Z,5.57
2023-02-05T14:08:57.658Z,5.43
2023-02-05T14:11:26.787Z,6.04
2023-02-05T14:14:25.960Z,6.31
2023-02-05T14:16:54.900Z,6.15
2023-02-05T14:19:25.628Z,5.67
2023-02-05T14:22:13.602Z,5.53
2023-02-05T14:24:47.372Z,5.55
2023-02-05T14:27:48.797Z,5.95
2023-02-05T14:30:38.583Z,5.96
2023-02-05T14:33:27.982Z,5.29
2023-02-05T14:35:57.406Z,5.18
2023-02-05T14:38:28.883Z,4.86
2023-02-05T14:41:06.242Z,4.80
2023-02-05T14:43:37.275Z,4.80
2023-02-05T14:46:08.230Z,4.87
2023-02-05T14:48:42.733Z,4.63
2023-02-05T14:51:29.136Z,4.29
2023-02-05T14:53:59.601Z,4.19
2023-02-05T14:56:33.959Z,4.36
2023-02-05T14:59:07.224Z,4.22
2023-02-05T15:01:46.591Z,4.48
2023-02-05T15:04:39.088Z,4.55
2023-02-05T15:07:13.767Z,4.68
2023-02-05T15:09:45.444Z,5.02
2023-02-05T15:12:32.216Z,4.78
2023-02-05T15:15:16.991Z,4.45
2023-02-05T15:17:52.704Z,4.16
2023-02-05T15:20:33.743Z,4.03
2023-02-05T15:23:21.965Z,4.41
2023-02-05T15:25:56.826Z,4.21
2023-02-05T15:28:33.075Z,4.39
2023-02-05T15:31:17.961Z,4.42
2023-02-05T15:33:53.325Z,4.19
2023-02-05T15:36:27.815Z,4.61
2023-02-05T15:39:06.753Z,4.73
2023-02-05T15:41:45.170Z,4.79
2023-02-05T15:44:22.826Z,4.74
2023-02-05T15:46:52.496Z,4.47
2023-02-05T15:49:26.410Z,4.81
2023-02-05T15:51:53.919Z,4.51
2023-02-05T15:54:21.936Z,4.07
2023-02-05T15:56:52.326Z,4.38
2023-02-05T15:59:24.169Z,4.57
2023-02-05T16:02:01.760Z,4.28
2023-02-05T16:04:31.663Z,4.54
2023-02-05T16:06:59.994Z,4.31
2023-02-05T16:09:29.109Z,4.64
2023-02-05T16:11:57.039Z,4.58
2023-02-05T16:14:26.334Z,4.63
2023-02-05T16:17:04.109Z,4.70
2023-02-05T16:19:36.929Z,4.55
2023-02-05T16:22:18.532Z,4.64
2023-02-05T16:24:49.571Z,4.61
2023-02-05T16:27:21.192Z,4.63
2023-02-05T16:29:53.179Z,4.46
2023-02-05T16:32:29.104Z,4.52
2023-02-05T16:34:56.894Z,4.53
2023-02-05T16:37:31.222Z,4.58
2023-02-05T16:40:01.447Z,4.56
2023-02-05T16:42:34.086Z,4.45
2023-02-05T16:45:18.520Z,4.46
2023-02-05T16:48:23.207Z,4.58
2023-02-05T16:50:52.081Z,4.39
2023-02-05T16:53:24.041Z,4.35
2023-02-05T16:55:58.142Z,4.25
2023-02-05T16:58:28.940Z,4.04
2023-02-05T17:00:59.016Z,3.94
2023-02-05T17:03:34.302Z,3.50
2023-02-05T17:06:04.051Z,3.11
2023-02-05T17:08:34.272Z,3.30
2023-02-05T17:11:04.477Z,3.29
2023-02-05T17:13:40.555Z,3.43
2023-02-05T17:16:35.289Z,3.42
2023-02-05T17:19:06.324Z,3.14
2023-02-05T17:21:34.949Z,3.04
2023-02-05T17:24:05.914Z,3.00
2023-02-05T17:26:36.126Z,2.85
2023-02-05T17:29:07.536Z,2.79
2023-02-05T17:31:38.255Z,2.84
2023-02-05T17:34:07.566Z,2.73
2023-02-05T17:36:35.081Z,2.56
2023-02-05T17:39:02.580Z,2.51
2023-02-05T17:41:53.900Z,2.49
2023-02-05T17:44:21.360Z,2.36
2023-02-05T17:46:48.821Z,2.27
2023-02-05T17:49:17.601Z,2.24
2023-02-05T17:51:45.031Z,2.14
2023-02-05T17:54:14.477Z,1.87
2023-02-05T17:56:44.274Z,1.95
2023-02-05T17:59:12.784Z,1.74
2023-02-05T18:01:40.238Z,1.53
2023-02-05T18:04:08.860Z,1.27
2023-02-05T18:06:38.413Z,1.48
2023-02-05T18:09:06.628Z,1.67
2023-02-05T18:11:34.433Z,1.65
2023-02-05T18:14:02.113Z,1.47
2023-02-05T18:16:29.689Z,1.28
2023-02-05T18:18:57.216Z,1.11
2023-02-05T18:21:24.980Z,1.03
2023-02-05T18:23:53.818Z,1.23
2023-02-05T18:26:21.822Z,1.29
2023-02-05T18:28:49.882Z,1.21
2023-02-05T18:31:17.565Z,1.14
2023-02-05T18:33:45.140Z,1.30
2023-02-05T18:36:14.663Z,1.20
2023-02-05T18:38:43.879Z,1.07
2023-02-05T18:41:14.601Z,1.06
2023-02-05T18:43:42.785Z,0.69
2023-02-05T18:46:12.552Z,0.59
2023-02-05T18:48:40.963Z,0.85
2023-02-05T18:51:10.380Z,0.72
2023-02-05T18:53:39.334Z,0.48
2023-02-05T18:56:09.469Z,0.68
2023-02-05T18:58:38.307Z,0.75
2023-02-05T19:01:10.157Z,0.72
2023-02-05T19:03:38.811Z,0.54
2023-02-05T19:06:06.757Z,0.64
2023-02-05T19:08:34.270Z,0.71
2023-02-05T19:11:06.800Z,0.70
2023-02-05T19:13:36.294Z,0.64
2023-02-05T19:16:07.387Z,0.42
2023-02-05T19:18:34.961Z,0.24
2023-02-05T19:21:06.585Z,0.46
2023-02-05T19:23:34.521Z,0.41
2023-02-05T19:26:04.081Z,-0.18
2023-02-05T19:28:32.687Z,-0.46
2023-02-05T19:31:03.495Z,-0.09
2023-02-05T19:33:32.874Z,0.16
2023-02-05T19:36:01.004Z,0.05
2023-02-05T19:38:29.003Z,0.29
2023-02-05T19:40:56.483Z,0.35
2023-02-05T19:43:24.035Z,0.35
2023-02-05T19:45:51.524Z,0.18
2023-02-05T19:48:19.025Z,0.08
2023-02-05T19:50:47.837Z,0.15
2023-02-05T19:53:16.697Z,-0.07
2023-02-05T19:55:44.176Z,-0.21
2023-02-05T19:58:12.615Z,-0.42
2023-02-05T20:00:40.132Z,-0.63
2023-02-05T20:03:07.608Z,-0.56
2023-02-05T20:05:37.184Z,-0.94
2023-02-05T20:08:06.101Z,-0.96
2023-02-05T20:10:33.853Z,-0.70
2023-02-05T20:13:01.478Z,-0.34
2023-02-05T20:15:28.942Z,-0.15
2023-02-05T20:17:58.446Z,-0.20
2023-02-05T20:20:33.509Z,-0.03
2023-02-05T20:23:01.400Z,-0.01
2023-02-05T20:25:30.239Z,-0.09
2023-02-05T20:27:57.802Z,-0.20
2023-02-05T20:30:43.138Z,-0.32
2023-02-05T20:33:10.730Z,-0.38
2023-02-05T20:35:39.082Z,-0.40
2023-02-05T20:38:06.949Z,-0.47
2023-02-05T20:40:35.988Z,-0.75
2023-02-05T20:43:04.658Z,-0.60
2023-02-05T20:45:33.740Z,-0.40
2023-02-05T20:48:01.351Z,-0.40
2023-02-05T20:50:28.827Z,-0.54
2023-02-05T20:52:56.380Z,-0.55
2023-02-05T20:55:23.856Z,-0.56
2023-02-05T20:57:52.665Z,-0.55
2023-02-05T21:00:22.304Z,-0.65
2023-02-05T21:02:49.770Z,-0.72
2023-02-05T21:05:17.270Z,-0.74
2023-02-05T21:07:44.809Z,-0.70
2023-02-05T21:10:12.281Z,-0.98
2023-02-05T21:12:39.746Z,-1.23
2023-02-05T21:15:09.425Z,-1.70
2023-02-05T21:17:37.319Z,-1.82
2023-02-05T21:20:05.160Z,-1.42
2023-02-05T21:22:32.613Z,-1.21
2023-02-05T21:25:00.101Z,-1.37
2023-02-05T21:27:27.649Z,-0.95
2023-02-05T21:29:55.101Z,-0.72
2023-02-05T21:32:23.939Z,-0.70
2023-02-05T21:34:52.131Z,-0.66
2023-02-05T21:37:19.629Z,-0.62
2023-02-05T21:39:48.046Z,-0.53
2023-02-05T21:42:15.533Z,-0.47
2023-02-05T21:44:44.127Z,-0.63
2023-02-05T21:47:11.602Z,-0.70
2023-02-05T21:49:40.386Z,-0.73
2023-02-05T21:52:07.855Z,-1.02
2023-02-05T21:54:35.302Z,-0.86
2023-02-05T21:57:02.760Z,-0.78
2023-02-05T21:59:30.209Z,-0.87
2023-02-05T22:01:57.748Z,-1.11
2023-02-05T22:04:25.269Z,-1.39
2023-02-05T22:06:54.050Z,-1.34
2023-02-05T22:09:21.690Z,-1.43
2023-02-05T22:11:50.527Z,-1.31
2023-02-05T22:14:18.141Z,-1.42
2023-02-05T22:16:45.732Z,-1.28
2023-02-05T22:19:13.233Z,-1.26
2023-02-05T22:21:42.326Z,-1.28
2023-02-05T22:24:15.022Z,-1.26
2023-02-05T22:26:42.934Z,-1.36
2023-02-05T22:29:13.386Z,-1.42
2023-02-05T22:31:41.081Z,-1.58
2023-02-05T22:34:08.612Z,-1.64
2023-02-05T22:36:36.357Z,-1.75
2023-02-05T22:39:05.485Z,-1.92
2023-02-05T22:41:36.347Z,-1.53
2023-02-05T22:44:05.407Z,-1.28
2023-02-05T22:46:34.728Z,-1.24
2023-02-05T22:49:03.377Z,-1.48
2023-02-05T22:51:32.876Z,-1.43
2023-02-05T22:54:00.625Z,-1.44
2023-02-05T22:56:28.651Z,-1.42
2023-02-05T22:58:57.902Z,-1.44
2023-02-05T23:01:27.893Z,-1.49
2023-02-05T23:03:56.288Z,-2.10
2023-02-05T23:06:26.116Z,-1.95
2023-02-05T23:08:58.915Z,-2.15
2023-02-05T23:11:27.823Z,-1.96
2023-02-05T23:13:57.426Z,-2.00
2023-02-05T23:16:26.889Z,-1.78
2023-02-05T23:18:58.046Z,-1.66
2023-02-05T23:21:27.797Z,-1.76
2023-02-05T23:23:55.374Z,-1.84
2023-02-05T23:26:24.603Z,-1.92
2023-02-05T23:28:53.004Z,-2.05
2023-02-05T23:31:22.687Z,-1.97
2023-02-05T23:33:50.857Z,-2.25
2023-02-05T23:36:18.877Z,-2.00
2023-02-05T23:38:46.420Z,-2.17
2023-02-05T23:41:14.045Z,-2.15
2023-02-05T23:43:41.746Z,-2.25
2023-02-05T23:46:09.586Z,-2.21
2023-02-05T23:48:38.578Z,-2.15
2023-02-05T23:51:06.064Z,-2.23
2023-02-05T23:53:33.529Z,-2.04
2023-02-05T23:56:01.761Z,-2.06
2023-02-05T23:58:29.233Z,-2.08
